Time;durP1;ratioP1;P1;durP2;ratioP2;P2;SDS_P1;SDS_P2;PMS_P1;PMS_P2;Temp;Humidity;BMP_temperature;BMP_pressure;BME280_temperature;BME280_humidity;BME280_pressure;Samples;Min_cycle;Max_cycle;Signal;HPM_P1;HPM_P2
2023/07/07 00:00:10;;;;;;;9.07;3.35;;;14.80;99.90;;;;;;5053643;28;20036;-86
2023/07/07 00:02:36;;;;;;;9.02;3.47;;;14.70;99.90;;;;;;5071542;28;20045;-86
2023/07/07 00:05:02;;;;;;;9.68;3.83;;;14.60;99.90;;;;;;5071752;28;20040;-86
2023/07/07 00:07:28;;;;;;;8.65;5.07;;;14.50;99.90;;;;;;5070745;28;20558;-86
2023/07/07 00:09:53;;;;;;;8.68;5.53;;;14.60;99.90;;;;;;5070331;28;20102;-86
2023/07/07 00:12:19;;;;;;;10.45;3.72;;;14.60;99.90;;;;;;5071644;28;20037;-86
2023/07/07 00:14:45;;;;;;;8.75;3.75;;;14.60;99.90;;;;;;5070206;28;20040;-86
2023/07/07 00:17:11;;;;;;;11.32;5.60;;;14.50;99.90;;;;;;5071143;28;20040;-86
2023/07/07 00:19:38;;;;;;;11.73;7.32;;;14.50;99.90;;;;;;5069735;28;20132;-86
2023/07/07 00:22:06;;;;;;;10.43;7.00;;;14.50;99.90;;;;;;5070216;28;20115;-86
2023/07/07 00:24:33;;;;;;;12.27;5.05;;;14.60;99.90;;;;;;5070391;28;20072;-86
2023/07/07 00:26:59;;;;;;;13.05;7.90;;;14.50;99.90;;;;;;5071649;28;20036;-86
2023/07/07 00:29:25;;;;;;;11.60;7.85;;;14.60;99.90;;;;;;5070391;28;20076;-86
2023/07/07 00:31:51;;;;;;;11.15;7.88;;;14.60;99.90;;;;;;5070385;28;20466;-87
2023/07/07 00:34:17;;;;;;;11.10;7.97;;;14.60;99.90;;;;;;5070126;28;20044;-86
2023/07/07 00:36:43;;;;;;;8.80;3.55;;;14.60;99.90;;;;;;5070014;28;20467;-86
2023/07/07 00:39:09;;;;;;;9.75;4.90;;;14.50;99.90;;;;;;5069914;28;20079;-86
2023/07/07 00:41:35;;;;;;;12.80;6.43;;;14.40;99.90;;;;;;5070939;28;20043;-85
2023/07/07 00:44:08;;;;;;;17.58;9.38;;;14.40;99.90;;;;;;5069952;28;20570;-86
2023/07/07 00:46:35;;;;;;;14.57;10.07;;;14.50;99.90;;;;;;5070966;28;20043;-86
2023/07/07 00:49:06;;;;;;;12.43;6.47;;;14.50;99.90;;;;;;5070243;28;20043;-86
2023/07/07 00:51:43;;;;;;;11.65;5.50;;;14.50;99.90;;;;;;5069602;28;20102;-86
2023/07/07 00:54:15;;;;;;;14.18;10.98;;;14.50;99.90;;;;;;5069800;28;20071;-86
2023/07/07 00:56:46;;;;;;;13.27;11.82;;;14.50;99.90;;;;;;5068637;28;20036;-86
2023/07/07 00:59:21;;;;;;;15.52;11.50;;;14.60;99.90;;;;;;5071080;28;20037;-86
2023/07/07 01:01:51;;;;;;;12.88;6.28;;;14.60;99.90;;;;;;5072010;28;20029;-86
2023/07/07 01:04:17;;;;;;;17.00;11.50;;;14.60;99.90;;;;;;5074039;28;20052;-86
2023/07/07 01:06:48;;;;;;;13.43;6.97;;;14.60;99.90;;;;;;5073548;28;20110;-86
2023/07/07 01:09:14;;;;;;;16.42;12.93;;;14.60;99.90;;;;;;5074243;28;20436;-87
2023/07/07 01:11:40;;;;;;;15.63;13.13;;;14.60;99.90;;;;;;5073694;28;20490;-86
2023/07/07 01:14:14;;;;;;;16.13;6.90;;;14.70;99.90;;;;;;5073737;28;20052;-86
2023/07/07 01:16:51;;;;;;;14.68;7.47;;;14.60;99.90;;;;;;5073365;28;20502;-86
2023/07/07 01:19:51;;;;;;;15.93;12.50;;;14.60;99.90;;;;;;5073269;28;20401;-87
2023/07/07 01:22:45;;;;;;;15.90;12.25;;;14.60;99.90;;;;;;5074771;28;20044;-87
2023/07/07 01:25:36;;;;;;;17.63;13.75;;;14.60;99.90;;;;;;5074632;28;20128;-87
2023/07/07 01:28:31;;;;;;;15.23;7.57;;;14.70;99.90;;;;;;5073726;28;20049;-87
2023/07/07 01:31:08;;;;;;;13.63;7.75;;;14.60;99.90;;;;;;5074373;28;20043;-87
2023/07/07 01:33:35;;;;;;;15.13;12.90;;;14.50;99.90;;;;;;5073685;28;20428;-87
2023/07/07 01:36:01;;;;;;;15.30;13.07;;;14.60;99.90;;;;;;5074542;28;20048;-87
2023/07/07 01:38:38;;;;;;;13.82;7.50;;;14.60;99.90;;;;;;5073120;28;20409;-87
2023/07/07 01:41:25;;;;;;;14.80;8.68;;;14.60;99.90;;;;;;5074183;28;20051;-87
2023/07/07 01:43:51;;;;;;;16.92;14.63;;;14.50;99.90;;;;;;5074204;28;20047;-87
2023/07/07 01:46:22;;;;;;;15.38;9.35;;;14.50;99.90;;;;;;5056129;28;20044;-87
2023/07/07 01:48:57;;;;;;;15.27;9.23;;;14.50;99.90;;;;;;5073379;28;20044;-87
2023/07/07 01:51:27;;;;;;;20.27;15.07;;;14.50;99.90;;;;;;5072670;28;20051;-87
2023/07/07 01:53:54;;;;;;;14.88;9.45;;;14.50;99.90;;;;;;5072848;28;20410;-87
2023/07/07 01:56:23;;;;;;;17.05;15.25;;;14.50;99.90;;;;;;5073799;28;20040;-87
2023/07/07 01:58:50;;;;;;;17.75;9.35;;;14.60;99.90;;;;;;5072643;28;20082;-87
2023/07/07 02:01:16;;;;;;;16.15;9.80;;;14.50;99.90;;;;;;5073898;28;20029;-87
2023/07/07 02:03:42;;;;;;;18.73;9.63;;;14.50;99.90;;;;;;5073974;28;20111;-87
2023/07/07 02:06:07;;;;;;;20.52;16.63;;;14.50;99.90;;;;;;5072729;28;20140;-87
2023/07/07 02:08:33;;;;;;;20.08;17.92;;;14.50;99.90;;;;;;5072729;28;20071;-86
2023/07/07 02:10:58;;;;;;;15.98;11.18;;;14.60;99.90;;;;;;5073581;28;20119;-87
2023/07/07 02:13:24;;;;;;;18.73;15.52;;;14.50;99.90;;;;;;5072488;28;20040;-87
2023/07/07 02:15:50;;;;;;;14.57;8.50;;;14.60;99.90;;;;;;5074045;28;20040;-86
2023/07/07 02:18:16;;;;;;;20.40;18.15;;;14.50;99.90;;;;;;5055501;28;20082;-86
2023/07/07 02:20:42;;;;;;;20.13;17.25;;;14.50;99.90;;;;;;5073417;28;20662;-87
2023/07/07 02:23:07;;;;;;;18.98;9.75;;;14.60;99.90;;;;;;5072227;28;20529;-86
2023/07/07 02:25:33;;;;;;;20.25;18.00;;;14.50;99.90;;;;;;5072215;28;20173;-86
2023/07/07 02:27:58;;;;;;;19.35;17.23;;;14.50;99.90;;;;;;5073552;28;20379;-86
2023/07/07 02:30:25;;;;;;;17.50;10.05;;;14.50;99.90;;;;;;5072232;28;20135;-87
2023/07/07 02:32:50;;;;;;;17.27;10.90;;;14.50;99.90;;;;;;5072397;28;20512;-87
2023/07/07 02:35:16;;;;;;;14.65;10.05;;;14.40;99.90;;;;;;5072154;28;20165;-86
2023/07/07 02:37:42;;;;;;;20.02;17.35;;;14.40;99.90;;;;;;5071578;28;20051;-86
2023/07/07 02:40:09;;;;;;;18.70;12.23;;;14.40;99.90;;;;;;5071626;28;20133;-86
2023/07/07 02:42:35;;;;;;;19.30;9.52;;;14.40;99.90;;;;;;5073112;28;20041;-86
2023/07/07 02:45:01;;;;;;;15.35;10.93;;;14.40;99.90;;;;;;5073238;28;20045;-86
2023/07/07 02:47:28;;;;;;;22.35;18.27;;;14.30;99.90;;;;;;5073372;28;20040;-86
2023/07/07 02:49:54;;;;;;;21.63;19.38;;;14.40;99.90;;;;;;5071672;28;20090;-86
2023/07/07 02:52:19;;;;;;;15.30;10.93;;;14.40;99.90;;;;;;5072229;28;20060;-87
2023/07/07 02:54:45;;;;;;;21.05;17.77;;;14.40;99.90;;;;;;5071642;28;20043;-86
2023/07/07 02:57:11;;;;;;;21.17;18.98;;;14.40;99.90;;;;;;5072160;28;20041;-87
2023/07/07 02:59:37;;;;;;;19.08;11.55;;;14.40;99.90;;;;;;5072575;28;20033;-86
2023/07/07 03:02:02;;;;;;;16.98;9.30;;;14.40;99.90;;;;;;5072920;28;20528;-86
2023/07/07 03:04:28;;;;;;;20.63;11.25;;;14.30;99.90;;;;;;5054585;28;20040;-86
2023/07/07 03:06:53;;;;;;;17.55;11.00;;;14.30;99.90;;;;;;5073003;28;20093;-86
2023/07/07 03:09:19;;;;;;;19.02;11.35;;;14.30;99.90;;;;;;5072907;28;20430;-86
2023/07/07 03:11:45;;;;;;;21.35;19.05;;;14.20;99.90;;;;;;5071107;28;20382;-86
2023/07/07 03:14:10;;;;;;;15.75;10.98;;;14.30;99.90;;;;;;5072486;28;20086;-86
2023/07/07 03:16:36;;;;;;;17.42;11.73;;;14.20;99.90;;;;;;5071233;28;20631;-86
2023/07/07 03:19:05;;;;;;;23.30;20.88;;;14.20;99.90;;;;;;5070744;28;20044;-86
2023/07/07 03:21:33;;;;;;;23.15;20.65;;;14.30;99.90;;;;;;5072152;28;20040;-87
2023/07/07 03:23:59;;;;;;;17.67;10.40;;;14.30;99.90;;;;;;5072122;28;20045;-86
2023/07/07 03:26:27;;;;;;;18.17;12.13;;;14.30;99.90;;;;;;5070725;28;20039;-86
2023/07/07 03:28:53;;;;;;;21.55;18.73;;;14.20;99.90;;;;;;5072531;28;20036;-86
2023/07/07 03:31:22;;;;;;;18.40;11.10;;;14.30;99.90;;;;;;5070779;28;20673;-87
2023/07/07 03:33:51;;;;;;;17.40;10.25;;;14.20;99.90;;;;;;5071736;28;20044;-86
2023/07/07 03:36:21;;;;;;;20.40;18.30;;;14.20;99.90;;;;;;5070952;28;20048;-87
2023/07/07 03:38:46;;;;;;;21.77;17.83;;;14.30;99.90;;;;;;5070946;28;20044;-86
2023/07/07 03:41:22;;;;;;;21.45;18.55;;;14.30;99.90;;;;;;5070298;28;20081;-86
2023/07/07 03:43:48;;;;;;;16.98;9.52;;;14.40;99.90;;;;;;5071583;28;20040;-86
2023/07/07 03:46:19;;;;;;;16.50;9.68;;;14.30;99.90;;;;;;5071504;28;20037;-86
2023/07/07 03:48:46;;;;;;;18.73;16.83;;;14.20;99.90;;;;;;5070475;28;20032;-86
2023/07/07 03:51:13;;;;;;;21.92;18.25;;;14.30;99.90;;;;;;5070902;28;20103;-86
2023/07/07 03:53:39;;;;;;;20.55;10.73;;;14.30;99.90;;;;;;5071736;28;20036;-87
2023/07/07 03:56:05;;;;;;;19.13;10.95;;;14.30;99.90;;;;;;5069667;28;20115;-87
2023/07/07 03:58:31;;;;;;;17.20;11.25;;;14.30;99.90;;;;;;5069978;28;20048;-87
2023/07/07 04:01:09;;;;;;;23.35;18.13;;;14.20;99.90;;;;;;5069851;28;20047;-86
2023/07/07 04:03:35;;;;;;;22.63;18.85;;;14.30;99.90;;;;;;5053350;28;20039;-86
2023/07/07 04:06:01;;;;;;;20.00;11.00;;;14.40;99.90;;;;;;5070235;28;20520;-87
2023/07/07 04:08:27;;;;;;;16.75;10.60;;;14.40;99.90;;;;;;5053865;28;20068;-87
2023/07/07 04:11:09;;;;;;;19.75;10.82;;;14.30;99.90;;;;;;5069550;28;20059;-86
2023/07/07 04:13:37;;;;;;;20.23;17.80;;;14.30;99.90;;;;;;5070796;28;20508;-86
2023/07/07 04:16:10;;;;;;;18.92;11.32;;;14.40;99.90;;;;;;5070374;28;20044;-86
2023/07/07 04:18:37;;;;;;;19.73;17.70;;;14.40;99.90;;;;;;5069846;28;20052;-87
2023/07/07 04:21:09;;;;;;;18.52;10.45;;;14.40;99.90;;;;;;5070976;28;20116;-87
2023/07/07 04:23:36;;;;;;;18.77;16.27;;;14.40;99.90;;;;;;5070118;28;20047;-86
2023/07/07 04:26:03;;;;;;;20.10;11.48;;;14.50;99.90;;;;;;5070541;28;20076;-86
2023/07/07 04:28:29;;;;;;;19.23;17.20;;;14.50;99.90;;;;;;5071546;28;20041;-86
2023/07/07 04:30:57;;;;;;;22.95;17.50;;;14.50;99.90;;;;;;5071267;28;20046;-86
2023/07/07 04:33:24;;;;;;;17.58;10.20;;;14.60;99.90;;;;;;5070745;28;20039;-86
2023/07/07 04:35:57;;;;;;;20.05;17.38;;;14.60;99.90;;;;;;5069274;28;20046;-87
2023/07/07 04:38:30;;;;;;;20.80;17.63;;;14.60;99.90;;;;;;5071186;28;20041;-86
2023/07/07 04:41:10;;;;;;;19.55;16.63;;;14.70;99.90;;;;;;5069749;28;20036;-87
2023/07/07 04:43:37;;;;;;;16.60;9.77;;;14.80;99.90;;;;;;5071052;28;20080;-86
2023/07/07 04:46:05;;;;;;;14.00;8.57;;;14.70;99.90;;;;;;5071316;28;20040;-87
2023/07/07 04:48:31;;;;;;;19.45;16.92;;;14.70;99.90;;;;;;5069978;28;20044;-86
2023/07/07 04:51:01;;;;;;;20.35;18.05;;;14.80;99.90;;;;;;5052974;28;20066;-86
2023/07/07 04:53:28;;;;;;;17.17;10.77;;;14.80;99.90;;;;;;5071153;28;20044;-87
2023/07/07 04:55:56;;;;;;;16.95;10.05;;;14.90;99.90;;;;;;5053100;28;20115;-87
2023/07/07 04:58:22;;;;;;;18.50;9.65;;;14.90;99.90;;;;;;5069279;28;20044;-87
2023/07/07 05:00:49;;;;;;;19.40;15.95;;;14.90;99.90;;;;;;5070892;28;20037;-87
2023/07/07 05:03:15;;;;;;;18.40;16.50;;;15.00;99.90;;;;;;5069796;28;20033;-86
2023/07/07 05:05:40;;;;;;;17.00;10.23;;;15.10;99.90;;;;;;5069676;28;20093;-87
2023/07/07 05:08:07;;;;;;;20.00;12.00;;;15.10;99.90;;;;;;5071298;28;20451;-87
2023/07/07 05:10:33;;;;;;;18.30;15.45;;;15.10;99.90;;;;;;5069330;28;20735;-87
2023/07/07 05:12:58;;;;;;;16.35;14.68;;;15.20;99.90;;;;;;5069434;28;20058;-87
2023/07/07 05:15:25;;;;;;;16.55;10.10;;;15.30;99.90;;;;;;5069629;28;20482;-87
2023/07/07 05:17:51;;;;;;;18.67;15.15;;;15.30;99.90;;;;;;5070753;28;20481;-87
2023/07/07 05:20:17;;;;;;;17.58;10.82;;;15.40;99.90;;;;;;5070720;28;20028;-87
2023/07/07 05:22:42;;;;;;;17.45;14.23;;;15.40;99.90;;;;;;5069711;28;20526;-87
2023/07/07 05:25:08;;;;;;;17.25;10.30;;;15.50;99.90;;;;;;5070834;28;20031;-87
2023/07/07 05:27:34;;;;;;;16.80;14.85;;;15.60;99.90;;;;;;5069366;28;20477;-87
2023/07/07 05:29:59;;;;;;;18.02;14.25;;;15.60;99.90;;;;;;5062670;28;20040;-87
2023/07/07 05:32:25;;;;;;;17.45;13.65;;;15.70;99.90;;;;;;5057245;28;20406;-87
2023/07/07 05:34:50;;;;;;;16.90;9.48;;;15.80;99.90;;;;;;5049264;28;20037;-87
2023/07/07 05:37:16;;;;;;;19.08;13.98;;;15.90;99.90;;;;;;5049524;28;20033;-87
2023/07/07 05:39:42;;;;;;;16.98;14.48;;;15.90;99.90;;;;;;5048837;28;20036;-87
2023/07/07 05:42:07;;;;;;;18.20;13.07;;;16.00;99.90;;;;;;5055140;28;20037;-87
2023/07/07 05:44:33;;;;;;;14.90;8.60;;;16.10;99.90;;;;;;5050685;28;20040;-87
2023/07/07 05:46:58;;;;;;;16.40;13.50;;;16.10;99.90;;;;;;5051600;28;20048;-87
2023/07/07 05:49:24;;;;;;;18.63;14.13;;;16.20;99.90;;;;;;5053321;28;20068;-87
2023/07/07 05:51:49;;;;;;;17.25;13.00;;;16.30;99.90;;;;;;5052855;28;20508;-88
2023/07/07 05:54:15;;;;;;;19.08;14.45;;;16.40;99.90;;;;;;5064466;28;20041;-87
2023/07/07 05:56:41;;;;;;;16.95;9.40;;;16.50;99.90;;;;;;5073865;28;20051;-87
2023/07/07 05:59:06;;;;;;;15.30;12.38;;;16.50;99.90;;;;;;5072841;28;20401;-87
2023/07/07 06:01:33;;;;;;;17.58;13.07;;;16.60;99.90;;;;;;5072787;28;20507;-87
2023/07/07 06:03:59;;;;;;;18.17;13.90;;;16.70;99.90;;;;;;5072458;28;20576;-87
2023/07/07 06:06:25;;;;;;;14.98;9.45;;;16.80;99.90;;;;;;5072980;28;20062;-87
2023/07/07 06:08:50;;;;;;;16.83;12.68;;;16.90;99.90;;;;;;5072688;28;20043;-87
2023/07/07 06:11:16;;;;;;;16.50;13.15;;;16.90;99.90;;;;;;5072662;28;20036;-87
2023/07/07 06:13:42;;;;;;;13.65;8.75;;;17.00;99.90;;;;;;5072776;28;20486;-88
2023/07/07 06:16:07;;;;;;;16.23;12.35;;;17.10;99.90;;;;;;5072662;28;20040;-87
2023/07/07 06:18:33;;;;;;;14.10;11.10;;;17.10;99.90;;;;;;5072363;28;20047;-87
2023/07/07 06:21:02;;;;;;;15.07;11.13;;;17.20;99.90;;;;;;5072378;28;20087;-87
2023/07/07 06:23:28;;;;;;;15.57;11.23;;;17.40;99.90;;;;;;5072573;28;20047;-87
2023/07/07 06:25:54;;;;;;;14.98;10.68;;;17.40;99.90;;;;;;5072589;28;20520;-87
2023/07/07 06:28:20;;;;;;;13.88;10.82;;;17.50;99.90;;;;;;5055782;28;20084;-87
2023/07/07 06:30:48;;;;;;;13.10;8.02;;;17.60;99.90;;;;;;5072508;28;20041;-88
2023/07/07 06:33:14;;;;;;;13.30;10.00;;;17.60;99.90;;;;;;5065296;28;20045;-88
2023/07/07 06:35:42;;;;;;;14.20;11.00;;;17.70;99.90;;;;;;5044516;28;20040;-88
2023/07/07 06:38:07;;;;;;;15.25;10.52;;;17.80;99.90;;;;;;5060185;28;20402;-88
2023/07/07 06:40:34;;;;;;;13.27;10.13;;;17.90;99.90;;;;;;5063530;28;20505;-88
2023/07/07 06:43:01;;;;;;;15.18;7.43;;;18.00;99.90;;;;;;5073299;28;20105;-87
2023/07/07 06:45:26;;;;;;;13.27;9.93;;;18.00;99.90;;;;;;5072228;28;20105;-88
2023/07/07 06:47:52;;;;;;;14.57;9.50;;;18.10;99.90;;;;;;5072305;28;20115;-88
2023/07/07 06:50:29;;;;;;;15.38;9.50;;;18.20;99.90;;;;;;5073052;28;20601;-88
2023/07/07 06:52:54;;;;;;;15.68;9.93;;;18.30;99.90;;;;;;5055487;28;20040;-88
2023/07/07 06:55:20;;;;;;;12.98;10.23;;;18.30;99.90;;;;;;5055448;28;20038;-88
2023/07/07 06:57:46;;;;;;;15.05;10.38;;;18.50;99.90;;;;;;5069255;28;20051;-88
2023/07/07 07:00:13;;;;;;;12.63;9.52;;;18.50;99.90;;;;;;5070740;28;20040;-88
2023/07/07 07:02:39;;;;;;;13.50;9.80;;;18.60;99.90;;;;;;5071467;28;20086;-88
2023/07/07 07:05:05;;;;;;;12.77;8.88;;;18.70;99.90;;;;;;5057928;28;20037;-88
2023/07/07 07:07:31;;;;;;;12.80;8.18;;;18.80;99.90;;;;;;5051734;28;20119;-88
2023/07/07 07:09:57;;;;;;;13.93;7.95;;;18.90;99.90;;;;;;5051792;28;20456;-88
2023/07/07 07:12:22;;;;;;;12.30;8.65;;;19.00;99.90;;;;;;5052132;28;20040;-88
2023/07/07 07:14:48;;;;;;;13.52;8.27;;;19.10;99.90;;;;;;5053832;28;20040;-90
2023/07/07 07:17:14;;;;;;;11.35;7.78;;;19.20;99.90;;;;;;5058147;28;20041;-89
2023/07/07 07:19:39;;;;;;;11.65;7.18;;;19.30;99.90;;;;;;5070511;28;20089;-89
2023/07/07 07:22:05;;;;;;;12.13;7.35;;;19.30;99.90;;;;;;5071253;28;20415;-89
2023/07/07 07:24:30;;;;;;;16.58;7.47;;;19.40;99.90;;;;;;5071274;28;20132;-89
2023/07/07 07:26:56;;;;;;;11.95;6.90;;;19.50;99.90;;;;;;5072759;28;20487;-89
2023/07/07 07:29:22;;;;;;;10.27;6.82;;;19.60;99.90;;;;;;5071485;28;20037;-90
2023/07/07 07:31:47;;;;;;;12.35;7.07;;;19.60;99.90;;;;;;5070844;28;20063;-89
2023/07/07 07:34:39;;;;;;;10.05;6.57;;;19.70;99.90;;;;;;5054495;28;20044;-89
2023/07/07 07:37:06;;;;;;;11.73;6.53;;;19.80;99.90;;;;;;5070082;28;20049;-90
2023/07/07 07:39:32;;;;;;;12.07;5.65;;;19.90;99.90;;;;;;5071070;28;20037;-89
2023/07/07 07:41:58;;;;;;;12.02;5.80;;;20.00;99.90;;;;;;5070983;28;20039;-89
2023/07/07 07:44:25;;;;;;;11.32;6.07;;;20.10;99.90;;;;;;5071356;28;20455;-89
2023/07/07 07:46:53;;;;;;;9.50;5.15;;;20.20;99.90;;;;;;5064628;28;20086;-89
2023/07/07 07:49:19;;;;;;;12.02;5.18;;;20.30;99.90;;;;;;5061856;28;20113;-90
2023/07/07 07:51:46;;;;;;;9.93;5.80;;;20.30;99.90;;;;;;5069236;28;20470;-89
2023/07/07 07:54:12;;;;;;;10.45;5.25;;;20.40;99.90;;;;;;5070925;28;20119;-89
2023/07/07 07:56:39;;;;;;;9.70;3.92;;;20.50;99.90;;;;;;5070945;28;20071;-89
2023/07/07 07:59:06;;;;;;;9.40;3.67;;;20.60;99.90;;;;;;5070602;28;20036;-89
2023/07/07 08:01:31;;;;;;;11.82;4.18;;;20.70;99.90;;;;;;5053950;28;20044;-89
2023/07/07 08:03:57;;;;;;;8.18;3.33;;;20.80;98.50;;;;;;5070764;28;20040;-90
2023/07/07 08:06:23;;;;;;;8.18;3.58;;;20.80;98.40;;;;;;5072362;28;20036;-90
2023/07/07 08:08:48;;;;;;;8.15;3.38;;;20.90;96.70;;;;;;5071162;28;20398;-89
2023/07/07 08:11:18;;;;;;;8.18;3.30;;;21.00;98.30;;;;;;5071176;28;20072;-89
2023/07/07 08:13:44;;;;;;;8.70;3.42;;;21.10;94.50;;;;;;5069497;28;20040;-90
2023/07/07 08:16:11;;;;;;;10.50;3.65;;;21.20;92.60;;;;;;5070692;28;20040;-90
2023/07/07 08:18:38;;;;;;;8.85;3.20;;;21.20;92.00;;;;;;5070814;28;20123;-90
2023/07/07 08:21:04;;;;;;;8.38;3.20;;;21.30;93.20;;;;;;5069800;28;20127;-89
2023/07/07 08:23:30;;;;;;;7.63;2.85;;;21.40;92.60;;;;;;5070037;28;20072;-90
2023/07/07 08:25:55;;;;;;;8.52;3.20;;;21.50;92.80;;;;;;5071706;28;20036;-89
2023/07/07 08:28:21;;;;;;;7.97;2.88;;;21.50;91.70;;;;;;5053201;28;20037;-90
2023/07/07 08:30:47;;;;;;;8.95;3.08;;;21.60;87.40;;;;;;5069751;28;20040;-89
2023/07/07 08:33:13;;;;;;;8.75;2.90;;;21.60;82.80;;;;;;5069428;28;20123;-90
2023/07/07 08:35:38;;;;;;;7.38;2.70;;;21.70;84.40;;;;;;5034107;28;20110;-90
2023/07/07 08:38:04;;;;;;;11.75;3.35;;;21.80;83.70;;;;;;5035880;28;20052;-90
2023/07/07 08:40:45;;;;;;;7.55;2.55;;;21.90;83.00;;;;;;5064310;28;20043;-89
2023/07/07 08:43:11;;;;;;;8.40;3.05;;;21.90;83.40;;;;;;5070099;28;20041;-90
2023/07/07 08:45:43;;;;;;;10.30;3.05;;;22.00;79.80;;;;;;5069647;28;20033;-90
2023/07/07 08:48:24;;;;;;;8.32;2.85;;;22.10;80.40;;;;;;5049088;28;20119;-89
2023/07/07 08:50:59;;;;;;;7.05;2.50;;;22.10;79.60;;;;;;5055071;28;20117;-90
2023/07/07 08:53:41;;;;;;;7.18;2.50;;;22.20;76.30;;;;;;5053372;28;20119;-89
2023/07/07 08:56:44;;;;;;;7.22;2.40;;;22.20;74.50;;;;;;5070466;28;20048;-89
2023/07/07 08:59:25;;;;;;;9.05;3.08;;;22.30;71.90;;;;;;5070367;28;20044;-89
2023/07/07 09:01:59;;;;;;;7.15;2.80;;;22.30;71.30;;;;;;5052926;28;20087;-89
2023/07/07 09:04:49;;;;;;;6.63;2.47;;;22.40;70.90;;;;;;5053457;28;20075;-90
2023/07/07 09:07:50;;;;;;;7.07;2.70;;;22.40;71.20;;;;;;5070495;28;20040;-90
2023/07/07 09:10:44;;;;;;;7.60;2.78;;;22.50;72.60;;;;;;5070070;28;20043;-90
2023/07/07 09:13:20;;;;;;;6.85;2.75;;;22.50;69.70;;;;;;5056210;28;20047;-90
2023/07/07 09:16:22;;;;;;;7.20;2.60;;;22.60;68.90;;;;;;5050358;28;20564;-89
2023/07/07 09:19:10;;;;;;;7.03;2.55;;;22.70;68.90;;;;;;5049420;28;20410;-89
2023/07/07 09:22:03;;;;;;;6.28;2.55;;;22.70;67.50;;;;;;5050378;28;20041;-89
2023/07/07 09:24:35;;;;;;;8.48;2.63;;;22.70;69.00;;;;;;5053770;28;20171;-89
2023/07/07 09:27:15;;;;;;;6.97;2.67;;;22.80;69.70;;;;;;5060049;28;20037;-89
2023/07/07 09:29:41;;;;;;;6.43;2.53;;;22.90;67.90;;;;;;5053557;28;20080;-89
2023/07/07 09:32:11;;;;;;;8.50;2.58;;;23.00;67.90;;;;;;5037416;28;20113;-89
2023/07/07 09:34:37;;;;;;;7.88;2.72;;;23.00;67.40;;;;;;5053669;28;20052;-89
2023/07/07 09:37:32;;;;;;;7.28;2.50;;;23.10;66.40;;;;;;5054004;28;20045;-89
2023/07/07 09:40:08;;;;;;;9.60;3.28;;;23.10;68.10;;;;;;5052782;28;20115;-89
2023/07/07 09:42:48;;;;;;;7.07;2.40;;;23.20;69.30;;;;;;5053580;28;20041;-89
2023/07/07 09:45:29;;;;;;;9.70;3.08;;;23.30;68.30;;;;;;5053849;28;20135;-89
2023/07/07 09:48:13;;;;;;;8.30;3.10;;;23.40;70.20;;;;;;5053275;28;20072;-89
2023/07/07 09:51:06;;;;;;;7.25;2.30;;;23.50;70.10;;;;;;5052928;28;20043;-89
2023/07/07 09:53:37;;;;;;;10.48;3.00;;;23.50;68.60;;;;;;5036524;28;20048;-89
2023/07/07 09:56:04;;;;;;;13.52;3.15;;;23.60;67.90;;;;;;5053637;28;20045;-88
2023/07/07 09:58:44;;;;;;;7.80;2.60;;;23.60;67.80;;;;;;5062949;28;20044;-88
2023/07/07 10:01:10;;;;;;;11.18;2.95;;;23.70;68.10;;;;;;5045207;28;20037;-89
2023/07/07 10:03:47;;;;;;;7.43;2.72;;;23.70;67.20;;;;;;5060722;28;20116;-88
2023/07/07 10:06:35;;;;;;;8.73;3.40;;;23.80;67.10;;;;;;5063505;28;20040;-88
2023/07/07 10:09:02;;;;;;;7.47;2.70;;;23.90;68.50;;;;;;5061684;28;20033;-89
2023/07/07 10:11:33;;;;;;;6.85;2.78;;;24.00;68.00;;;;;;5062736;28;20124;-89
2023/07/07 10:14:03;;;;;;;7.50;2.60;;;24.10;68.90;;;;;;5070804;28;20052;-88
2023/07/07 10:16:39;;;;;;;6.97;3.00;;;24.10;66.10;;;;;;5063603;28;20033;-88
2023/07/07 10:19:11;;;;;;;8.20;3.00;;;24.20;65.50;;;;;;5063672;28;20074;-88
2023/07/07 10:21:37;;;;;;;7.22;2.50;;;24.20;64.70;;;;;;5066281;28;20102;-88
2023/07/07 10:24:03;;;;;;;8.65;2.53;;;24.20;63.90;;;;;;5073982;28;20108;-88
2023/07/07 10:26:29;;;;;;;7.25;2.97;;;24.30;63.20;;;;;;5072603;28;20068;-89
2023/07/07 10:28:59;;;;;;;6.93;2.58;;;24.30;62.80;;;;;;5056235;28;20055;-88
2023/07/07 10:31:26;;;;;;;7.15;2.78;;;24.40;63.80;;;;;;5055880;28;20048;-88
2023/07/07 10:34:16;;;;;;;6.95;2.45;;;24.40;64.50;;;;;;5071535;28;20049;-88
2023/07/07 10:36:42;;;;;;;7.07;2.65;;;24.60;62.90;;;;;;5072892;28;20040;-88
2023/07/07 10:39:08;;;;;;;7.85;2.47;;;24.60;63.50;;;;;;5072599;28;20486;-88
2023/07/07 10:41:34;;;;;;;7.30;2.40;;;24.70;63.50;;;;;;5073430;28;20048;-88
2023/07/07 10:43:59;;;;;;;6.93;2.42;;;24.70;64.20;;;;;;5072481;28;20048;-88
2023/07/07 10:46:25;;;;;;;7.57;2.67;;;24.80;63.70;;;;;;5072030;28;20056;-88
2023/07/07 10:48:54;;;;;;;6.30;2.40;;;24.80;62.40;;;;;;5072409;28;20539;-88
2023/07/07 10:51:28;;;;;;;7.13;2.75;;;24.90;60.20;;;;;;5071711;28;20040;-88
2023/07/07 10:54:00;;;;;;;7.38;2.60;;;24.90;61.10;;;;;;5072152;28;20049;-88
2023/07/07 10:56:36;;;;;;;7.00;2.45;;;24.90;60.40;;;;;;5072268;28;20506;-88
2023/07/07 10:59:31;;;;;;;6.97;2.58;;;24.90;59.90;;;;;;5072593;28;20122;-88
2023/07/07 11:02:09;;;;;;;7.60;2.60;;;25.00;58.00;;;;;;5071606;28;20068;-88
2023/07/07 11:05:04;;;;;;;8.18;2.75;;;24.90;57.60;;;;;;5072220;28;20121;-88
2023/07/07 11:07:47;;;;;;;7.85;3.00;;;25.00;58.90;;;;;;5072226;28;20127;-88
2023/07/07 11:10:40;;;;;;;7.13;2.60;;;25.00;57.40;;;;;;5070208;28;20044;-88
2023/07/07 11:13:29;;;;;;;8.20;3.42;;;25.00;55.80;;;;;;5063217;28;20444;-88
2023/07/07 11:16:32;;;;;;;6.47;2.38;;;25.10;57.30;;;;;;5063304;28;20049;-88
2023/07/07 11:19:28;;;;;;;7.68;2.70;;;25.20;56.30;;;;;;5060767;28;20114;-88
2023/07/07 11:22:06;;;;;;;7.32;2.67;;;25.20;55.60;;;;;;5045602;28;20418;-88
2023/07/07 11:24:41;;;;;;;5.68;2.50;;;25.20;56.20;;;;;;5057224;28;20414;-88
2023/07/07 11:27:19;;;;;;;7.35;2.70;;;25.30;54.70;;;;;;5061799;28;20079;-88
2023/07/07 11:29:58;;;;;;;7.05;2.40;;;25.40;54.20;;;;;;5050284;28;20040;-88
2023/07/07 11:32:32;;;;;;;7.30;2.75;;;25.40;54.20;;;;;;5061424;28;20044;-88
2023/07/07 11:35:19;;;;;;;7.60;2.58;;;25.50;53.30;;;;;;5062130;28;20040;-88
2023/07/07 11:38:04;;;;;;;8.13;2.42;;;25.50;52.30;;;;;;5066992;28;20044;-88
2023/07/07 11:40:47;;;;;;;6.50;2.33;;;25.60;52.60;;;;;;5061402;28;20604;-88
2023/07/07 11:43:23;;;;;;;5.57;2.20;;;25.60;52.30;;;;;;5064797;28;20036;-89
2023/07/07 11:46:16;;;;;;;5.25;2.25;;;25.70;53.20;;;;;;5061535;28;20462;-89
2023/07/07 11:49:15;;;;;;;6.28;2.33;;;25.80;52.10;;;;;;5061196;28;20041;-89
2023/07/07 11:51:56;;;;;;;7.43;2.40;;;25.90;51.90;;;;;;5060465;28;20059;-89
2023/07/07 11:54:53;;;;;;;6.75;2.85;;;26.00;52.80;;;;;;5062008;28;20405;-89
2023/07/07 11:58:05;;;;;;;6.25;2.17;;;26.10;53.50;;;;;;5068149;28;20045;-89
2023/07/07 12:00:43;;;;;;;11.60;2.70;;;26.20;51.10;;;;;;5052762;28;20040;-89
2023/07/07 12:03:34;;;;;;;6.97;2.80;;;26.40;52.30;;;;;;5036263;28;20106;-90
2023/07/07 12:06:04;;;;;;;7.00;2.35;;;26.40;52.90;;;;;;5066487;28;20125;-90
2023/07/07 12:08:40;;;;;;;7.88;2.83;;;26.50;51.80;;;;;;5061592;28;20051;-90
2023/07/07 12:11:08;;;;;;;6.45;2.60;;;26.70;52.20;;;;;;5050677;28;20131;-90
2023/07/07 12:13:55;;;;;;;6.20;2.20;;;26.80;51.80;;;;;;5050599;28;20049;-90
2023/07/07 12:16:22;;;;;;;6.03;2.38;;;26.90;52.40;;;;;;5050963;28;20047;-90
2023/07/07 12:18:56;;;;;;;6.03;2.28;;;27.00;52.10;;;;;;5050625;28;20041;-90
2023/07/07 12:21:32;;;;;;;6.55;2.40;;;27.10;50.30;;;;;;5049822;28;20041;-90
2023/07/07 12:24:04;;;;;;;6.72;2.47;;;27.20;50.50;;;;;;5033653;28;20073;-90
2023/07/07 12:26:40;;;;;;;6.28;2.50;;;27.20;48.80;;;;;;5050600;28;20044;-90
2023/07/07 12:29:06;;;;;;;6.10;2.58;;;27.30;48.50;;;;;;5050325;28;20049;-90
2023/07/07 12:31:32;;;;;;;6.10;2.20;;;27.30;50.10;;;;;;5050066;28;20037;-90
2023/07/07 12:34:36;;;;;;;6.78;2.63;;;27.30;50.20;;;;;;5033439;28;20033;-90
2023/07/07 12:37:04;;;;;;;7.20;2.58;;;27.50;50.20;;;;;;5033430;28;20041;-90
2023/07/07 12:39:30;;;;;;;6.38;2.53;;;27.60;50.80;;;;;;5050014;28;20039;-90
2023/07/07 12:41:55;;;;;;;6.53;2.53;;;27.50;49.20;;;;;;5050095;28;20473;-90
2023/07/07 12:44:21;;;;;;;5.53;2.17;;;27.70;50.30;;;;;;5050458;28;20040;-90
2023/07/07 12:46:47;;;;;;;6.65;2.40;;;27.70;48.30;;;;;;5049646;28;20079;-90
2023/07/07 12:49:22;;;;;;;5.95;2.30;;;27.80;48.90;;;;;;5049808;28;20410;-90
2023/07/07 12:51:55;;;;;;;6.68;2.60;;;27.80;46.00;;;;;;5050495;28;20041;-90
2023/07/07 12:54:29;;;;;;;6.63;2.50;;;27.90;47.70;;;;;;5049965;28;20052;-90
2023/07/07 12:57:13;;;;;;;6.93;2.42;;;28.00;47.50;;;;;;5051533;28;20494;-90